Boulder Hill, Illinois
Current Conditions -  °F | °C
As of 10:52 AM on Wednesday 26 Nov 2014 (Local Time) from KARR Reporting Station
Haze Haze  
Wind Chill: 16°   Ceiling: 1300
Heat Index: 25°   Visibility: 5mi
Dew Point: 18°   Wind: 9mph
Humidity: 75%   Direction: 110°ESE
Pressure: 30.15"   Gusts: NA
Location:  41.7195°N, 88.3183°W
Report Text: KARR 261652Z 11008KT 5SM HZ OVC013 M04/M08 A3015 RMK AO2 SLP220 T10391078
Loading
Personal Weather Stations






























Interactive Weather Map New forecast layout! Learn more

10-Day Weather Forecast

Advertisements
Track Severe Weather on mobile